sensor_id;sensor_type;location;lat;lon;timestamp;temperature;humidity
3713;DHT22;1872;51.406;6.856;2023-09-19T00:00:45;15.90;99.90
3713;DHT22;1872;51.406;6.856;2023-09-19T00:03:12;15.90;99.90
3713;DHT22;1872;51.406;6.856;2023-09-19T00:05:38;15.90;99.90
3713;DHT22;1872;51.406;6.856;2023-09-19T00:08:04;15.80;99.90
3713;DHT22;1872;51.406;6.856;2023-09-19T00:10:31;15.80;99.90
3713;DHT22;1872;51.406;6.856;2023-09-19T00:13:00;15.80;99.90
3713;DHT22;1872;51.406;6.856;2023-09-19T00:15:31;15.80;99.90
3713;DHT22;1872;51.406;6.856;2023-09-19T00:18:01;15.80;99.90
3713;DHT22;1872;51.406;6.856;2023-09-19T00:20:26;15.70;99.90
3713;DHT22;1872;51.406;6.856;2023-09-19T00:22:52;15.70;99.90
3713;DHT22;1872;51.406;6.856;2023-09-19T00:25:19;15.70;99.90
3713;DHT22;1872;51.406;6.856;2023-09-19T00:27:46;15.70;99.90
3713;DHT22;1872;51.406;6.856;2023-09-19T00:30:16;15.60;99.90
3713;DHT22;1872;51.406;6.856;2023-09-19T00:32:46;15.60;99.90
3713;DHT22;1872;51.406;6.856;2023-09-19T00:35:13;15.60;99.90
3713;DHT22;1872;51.406;6.856;2023-09-19T00:37:40;15.50;99.90
3713;DHT22;1872;51.406;6.856;2023-09-19T00:40:10;15.50;99.90
3713;DHT22;1872;51.406;6.856;2023-09-19T00:42:41;15.50;99.90
3713;DHT22;1872;51.406;6.856;2023-09-19T00:45:08;15.50;99.90
3713;DHT22;1872;51.406;6.856;2023-09-19T00:47:36;15.50;99.90
3713;DHT22;1872;51.406;6.856;2023-09-19T00:50:04;15.40;99.90
3713;DHT22;1872;51.406;6.856;2023-09-19T00:52:33;15.40;99.90
3713;DHT22;1872;51.406;6.856;2023-09-19T00:54:59;15.40;99.90
3713;DHT22;1872;51.406;6.856;2023-09-19T00:57:25;15.40;99.90
3713;DHT22;1872;51.406;6.856;2023-09-19T00:59:54;15.30;99.90
3713;DHT22;1872;51.406;6.856;2023-09-19T01:02:20;15.30;99.90
3713;DHT22;1872;51.406;6.856;2023-09-19T01:04:47;15.30;99.90
3713;DHT22;1872;51.406;6.856;2023-09-19T01:07:13;15.30;99.90
3713;DHT22;1872;51.406;6.856;2023-09-19T01:09:42;15.30;99.90
3713;DHT22;1872;51.406;6.856;2023-09-19T01:12:08;15.30;99.90
3713;DHT22;1872;51.406;6.856;2023-09-19T01:14:59;15.20;99.90
3713;DHT22;1872;51.406;6.856;2023-09-19T01:17:34;15.20;99.90
3713;DHT22;1872;51.406;6.856;2023-09-19T01:20:09;15.20;99.90
3713;DHT22;1872;51.406;6.856;2023-09-19T01:31:02;15.10;99.90
3713;DHT22;1872;51.406;6.856;2023-09-19T01:33:53;15.10;99.90
3713;DHT22;1872;51.406;6.856;2023-09-19T01:36:16;15.10;99.90
3713;DHT22;1872;51.406;6.856;2023-09-19T01:38:42;15.10;99.90
3713;DHT22;1872;51.406;6.856;2023-09-19T01:41:11;15.10;99.90
3713;DHT22;1872;51.406;6.856;2023-09-19T01:43:42;15.20;99.90
3713;DHT22;1872;51.406;6.856;2023-09-19T01:46:28;15.10;99.90
3713;DHT22;1872;51.406;6.856;2023-09-19T01:51:51;15.10;99.90
3713;DHT22;1872;51.406;6.856;2023-09-19T01:54:26;15.10;99.90
3713;DHT22;1872;51.406;6.856;2023-09-19T01:57:01;15.10;99.90
3713;DHT22;1872;51.406;6.856;2023-09-19T01:59:35;15.10;99.90
3713;DHT22;1872;51.406;6.856;2023-09-19T02:02:03;15.10;99.90
3713;DHT22;1872;51.406;6.856;2023-09-19T02:04:28;15.00;99.90
3713;DHT22;1872;51.406;6.856;2023-09-19T02:06:54;15.00;99.90
3713;DHT22;1872;51.406;6.856;2023-09-19T02:09:21;15.00;99.90
3713;DHT22;1872;51.406;6.856;2023-09-19T02:11:46;15.00;99.90
3713;DHT22;1872;51.406;6.856;2023-09-19T02:14:12;15.00;99.90
3713;DHT22;1872;51.406;6.856;2023-09-19T02:16:39;15.00;99.90
3713;DHT22;1872;51.406;6.856;2023-09-19T02:19:04;15.00;99.90
3713;DHT22;1872;51.406;6.856;2023-09-19T02:21:31;14.90;99.90
3713;DHT22;1872;51.406;6.856;2023-09-19T02:23:57;15.00;99.90
3713;DHT22;1872;51.406;6.856;2023-09-19T02:26:24;14.90;99.90
3713;DHT22;1872;51.406;6.856;2023-09-19T02:28:50;14.90;99.90
3713;DHT22;1872;51.406;6.856;2023-09-19T02:31:15;14.90;99.90
3713;DHT22;1872;51.406;6.856;2023-09-19T02:33:42;14.90;99.90
3713;DHT22;1872;51.406;6.856;2023-09-19T02:36:08;14.90;99.90
3713;DHT22;1872;51.406;6.856;2023-09-19T02:38:34;15.00;99.90
3713;DHT22;1872;51.406;6.856;2023-09-19T02:41:00;15.00;99.90
3713;DHT22;1872;51.406;6.856;2023-09-19T02:43:27;14.90;99.90
3713;DHT22;1872;51.406;6.856;2023-09-19T02:45:53;15.00;99.90
3713;DHT22;1872;51.406;6.856;2023-09-19T02:48:22;14.90;99.90
3713;DHT22;1872;51.406;6.856;2023-09-19T02:50:51;14.90;99.90
3713;DHT22;1872;51.406;6.856;2023-09-19T02:53:17;14.90;99.90
3713;DHT22;1872;51.406;6.856;2023-09-19T02:55:44;14.90;99.90
3713;DHT22;1872;51.406;6.856;2023-09-19T02:58:12;14.90;99.90
3713;DHT22;1872;51.406;6.856;2023-09-19T03:00:39;14.90;99.90
3713;DHT22;1872;51.406;6.856;2023-09-19T03:03:08;14.90;99.90
3713;DHT22;1872;51.406;6.856;2023-09-19T03:05:34;14.90;99.90
3713;DHT22;1872;51.406;6.856;2023-09-19T03:08:00;14.90;99.90
3713;DHT22;1872;51.406;6.856;2023-09-19T03:10:28;14.90;99.90
3713;DHT22;1872;51.406;6.856;2023-09-19T03:12:55;14.90;99.90
3713;DHT22;1872;51.406;6.856;2023-09-19T03:15:21;14.90;99.90
3713;DHT22;1872;51.406;6.856;2023-09-19T03:17:48;14.80;99.90
3713;DHT22;1872;51.406;6.856;2023-09-19T03:20:14;14.80;99.90
3713;DHT22;1872;51.406;6.856;2023-09-19T03:22:45;14.80;99.90
3713;DHT22;1872;51.406;6.856;2023-09-19T03:25:14;14.80;99.90
3713;DHT22;1872;51.406;6.856;2023-09-19T03:27:40;14.80;99.90
3713;DHT22;1872;51.406;6.856;2023-09-19T03:30:07;14.80;99.90
3713;DHT22;1872;51.406;6.856;2023-09-19T03:32:42;14.70;99.90
3713;DHT22;1872;51.406;6.856;2023-09-19T03:35:08;14.80;99.90
3713;DHT22;1872;51.406;6.856;2023-09-19T03:37:41;14.80;99.90
3713;DHT22;1872;51.406;6.856;2023-09-19T03:40:08;14.70;99.90
3713;DHT22;1872;51.406;6.856;2023-09-19T03:42:40;14.70;99.90
3713;DHT22;1872;51.406;6.856;2023-09-19T03:45:10;14.70;99.90
3713;DHT22;1872;51.406;6.856;2023-09-19T03:47:38;14.70;99.90
3713;DHT22;1872;51.406;6.856;2023-09-19T03:50:05;14.60;99.90
3713;DHT22;1872;51.406;6.856;2023-09-19T03:52:31;14.60;99.90
3713;DHT22;1872;51.406;6.856;2023-09-19T03:54:56;14.60;99.90
3713;DHT22;1872;51.406;6.856;2023-09-19T03:57:22;14.60;99.90
3713;DHT22;1872;51.406;6.856;2023-09-19T03:59:47;14.60;99.90
3713;DHT22;1872;51.406;6.856;2023-09-19T04:02:13;14.50;99.90
3713;DHT22;1872;51.406;6.856;2023-09-19T04:04:51;14.50;99.90
3713;DHT22;1872;51.406;6.856;2023-09-19T04:07:17;14.50;99.90
3713;DHT22;1872;51.406;6.856;2023-09-19T04:09:45;14.50;99.90
3713;DHT22;1872;51.406;6.856;2023-09-19T04:12:11;14.50;99.90
3713;DHT22;1872;51.406;6.856;2023-09-19T04:14:37;14.40;99.90
3713;DHT22;1872;51.406;6.856;2023-09-19T04:17:04;14.50;99.90
3713;DHT22;1872;51.406;6.856;2023-09-19T04:19:30;14.50;99.90
3713;DHT22;1872;51.406;6.856;2023-09-19T04:21:56;14.40;99.90
3713;DHT22;1872;51.406;6.856;2023-09-19T04:24:22;14.40;99.90
3713;DHT22;1872;51.406;6.856;2023-09-19T04:26:48;14.40;99.90
3713;DHT22;1872;51.406;6.856;2023-09-19T04:29:13;14.40;99.90
3713;DHT22;1872;51.406;6.856;2023-09-19T04:31:39;14.40;99.90
3713;DHT22;1872;51.406;6.856;2023-09-19T04:34:06;14.40;99.90
3713;DHT22;1872;51.406;6.856;2023-09-19T04:36:31;14.40;99.90
3713;DHT22;1872;51.406;6.856;2023-09-19T04:38:57;14.40;99.90
3713;DHT22;1872;51.406;6.856;2023-09-19T04:41:23;14.40;99.90
3713;DHT22;1872;51.406;6.856;2023-09-19T04:43:50;14.40;99.90
3713;DHT22;1872;51.406;6.856;2023-09-19T04:46:16;14.40;99.90
3713;DHT22;1872;51.406;6.856;2023-09-19T04:48:43;14.40;99.90
3713;DHT22;1872;51.406;6.856;2023-09-19T04:51:08;14.40;99.90
3713;DHT22;1872;51.406;6.856;2023-09-19T04:53:34;14.40;99.90
3713;DHT22;1872;51.406;6.856;2023-09-19T04:55:59;14.40;99.90
3713;DHT22;1872;51.406;6.856;2023-09-19T04:58:25;14.30;99.90
3713;DHT22;1872;51.406;6.856;2023-09-19T05:00:51;14.40;99.90
3713;DHT22;1872;51.406;6.856;2023-09-19T05:03:17;14.40;99.90
3713;DHT22;1872;51.406;6.856;2023-09-19T05:05:43;14.30;99.90
3713;DHT22;1872;51.406;6.856;2023-09-19T05:08:08;14.30;99.90
3713;DHT22;1872;51.406;6.856;2023-09-19T05:10:35;14.30;99.90
3713;DHT22;1872;51.406;6.856;2023-09-19T05:13:04;14.30;99.90
3713;DHT22;1872;51.406;6.856;2023-09-19T05:15:30;14.30;99.90
3713;DHT22;1872;51.406;6.856;2023-09-19T05:17:56;14.40;99.90
3713;DHT22;1872;51.406;6.856;2023-09-19T05:20:22;14.40;99.90
3713;DHT22;1872;51.406;6.856;2023-09-19T05:25:27;14.40;99.90
3713;DHT22;1872;51.406;6.856;2023-09-19T05:28:00;14.40;99.90
3713;DHT22;1872;51.406;6.856;2023-09-19T05:30:29;14.40;99.90
3713;DHT22;1872;51.406;6.856;2023-09-19T05:32:55;14.50;99.90
3713;DHT22;1872;51.406;6.856;2023-09-19T05:35:21;14.50;99.90
3713;DHT22;1872;51.406;6.856;2023-09-19T05:37:50;14.50;99.90
3713;DHT22;1872;51.406;6.856;2023-09-19T05:40:19;14.50;99.90
3713;DHT22;1872;51.406;6.856;2023-09-19T05:42:46;14.60;99.90
3713;DHT22;1872;51.406;6.856;2023-09-19T05:45:13;14.50;99.90
3713;DHT22;1872;51.406;6.856;2023-09-19T05:47:40;14.60;99.90
3713;DHT22;1872;51.406;6.856;2023-09-19T05:50:11;14.60;99.90
3713;DHT22;1872;51.406;6.856;2023-09-19T05:52:37;14.60;99.90
3713;DHT22;1872;51.406;6.856;2023-09-19T05:55:07;14.60;99.90
3713;DHT22;1872;51.406;6.856;2023-09-19T05:57:36;14.70;99.90
3713;DHT22;1872;51.406;6.856;2023-09-19T06:00:06;14.70;99.90
3713;DHT22;1872;51.406;6.856;2023-09-19T06:02:36;14.70;99.90
3713;DHT22;1872;51.406;6.856;2023-09-19T06:05:04;14.80;99.90
3713;DHT22;1872;51.406;6.856;2023-09-19T06:07:32;14.90;99.90
3713;DHT22;1872;51.406;6.856;2023-09-19T06:10:06;14.90;99.90
3713;DHT22;1872;51.406;6.856;2023-09-19T06:12:32;15.00;99.90
3713;DHT22;1872;51.406;6.856;2023-09-19T06:15:03;15.00;99.90
3713;DHT22;1872;51.406;6.856;2023-09-19T06:17:30;15.10;99.90
3713;DHT22;1872;51.406;6.856;2023-09-19T06:19:56;15.10;99.90
3713;DHT22;1872;51.406;6.856;2023-09-19T06:22:23;15.20;99.90
3713;DHT22;1872;51.406;6.856;2023-09-19T06:24:50;15.10;99.90
3713;DHT22;1872;51.406;6.856;2023-09-19T06:27:15;15.20;99.90
3713;DHT22;1872;51.406;6.856;2023-09-19T06:29:41;15.20;99.90
3713;DHT22;1872;51.406;6.856;2023-09-19T06:32:08;15.20;99.90
3713;DHT22;1872;51.406;6.856;2023-09-19T06:34:37;15.30;99.90
3713;DHT22;1872;51.406;6.856;2023-09-19T06:37:04;15.30;99.90
3713;DHT22;1872;51.406;6.856;2023-09-19T06:39:31;15.30;99.90
3713;DHT22;1872;51.406;6.856;2023-09-19T06:41:57;15.30;99.90
3713;DHT22;1872;51.406;6.856;2023-09-19T06:44:23;15.40;99.90
3713;DHT22;1872;51.406;6.856;2023-09-19T06:46:50;15.40;99.90
3713;DHT22;1872;51.406;6.856;2023-09-19T06:49:17;15.40;99.90
3713;DHT22;1872;51.406;6.856;2023-09-19T06:51:43;15.40;99.90
3713;DHT22;1872;51.406;6.856;2023-09-19T06:54:09;15.50;99.90
3713;DHT22;1872;51.406;6.856;2023-09-19T06:56:35;15.50;99.90
3713;DHT22;1872;51.406;6.856;2023-09-19T06:59:01;15.50;99.90
3713;DHT22;1872;51.406;6.856;2023-09-19T07:01:28;15.50;99.90
3713;DHT22;1872;51.406;6.856;2023-09-19T07:03:53;15.60;99.90
3713;DHT22;1872;51.406;6.856;2023-09-19T07:06:20;15.60;99.90
3713;DHT22;1872;51.406;6.856;2023-09-19T07:08:45;15.60;99.90
3713;DHT22;1872;51.406;6.856;2023-09-19T07:11:11;15.70;99.90
3713;DHT22;1872;51.406;6.856;2023-09-19T07:13:38;15.70;99.90
3713;DHT22;1872;51.406;6.856;2023-09-19T07:16:04;15.80;99.90
3713;DHT22;1872;51.406;6.856;2023-09-19T07:18:30;15.80;99.90
3713;DHT22;1872;51.406;6.856;2023-09-19T07:20:58;15.90;99.90
3713;DHT22;1872;51.406;6.856;2023-09-19T07:23:30;15.90;99.90
3713;DHT22;1872;51.406;6.856;2023-09-19T07:26:00;16.00;99.90
3713;DHT22;1872;51.406;6.856;2023-09-19T07:28:26;16.00;99.90
3713;DHT22;1872;51.406;6.856;2023-09-19T07:30:52;16.10;99.90
3713;DHT22;1872;51.406;6.856;2023-09-19T07:33:18;16.10;99.90
3713;DHT22;1872;51.406;6.856;2023-09-19T07:35:47;16.20;99.90
3713;DHT22;1872;51.406;6.856;2023-09-19T07:38:13;16.20;99.90
3713;DHT22;1872;51.406;6.856;2023-09-19T07:40:39;16.30;99.90
3713;DHT22;1872;51.406;6.856;2023-09-19T07:43:05;16.40;99.90
3713;DHT22;1872;51.406;6.856;2023-09-19T07:45:32;16.50;99.90
3713;DHT22;1872;51.406;6.856;2023-09-19T07:47:58;16.50;99.90
3713;DHT22;1872;51.406;6.856;2023-09-19T07:50:24;16.60;99.90
3713;DHT22;1872;51.406;6.856;2023-09-19T07:52:52;16.60;99.90
3713;DHT22;1872;51.406;6.856;2023-09-19T07:55:19;16.70;99.90
3713;DHT22;1872;51.406;6.856;2023-09-19T07:57:48;16.70;99.90
3713;DHT22;1872;51.406;6.856;2023-09-19T08:00:14;16.70;99.90
3713;DHT22;1872;51.406;6.856;2023-09-19T08:02:40;16.80;99.90
3713;DHT22;1872;51.406;6.856;2023-09-19T08:05:07;16.90;99.90
3713;DHT22;1872;51.406;6.856;2023-09-19T08:07:41;16.90;99.90
3713;DHT22;1872;51.406;6.856;2023-09-19T08:10:08;17.00;99.90
3713;DHT22;1872;51.406;6.856;2023-09-19T08:12:37;17.10;99.90
3713;DHT22;1872;51.406;6.856;2023-09-19T08:15:03;17.20;99.90
3713;DHT22;1872;51.406;6.856;2023-09-19T08:17:34;17.30;99.90
3713;DHT22;1872;51.406;6.856;2023-09-19T08:20:00;17.40;99.90
3713;DHT22;1872;51.406;6.856;2023-09-19T08:22:26;17.40;99.90
3713;DHT22;1872;51.406;6.856;2023-09-19T08:24:53;17.50;99.90
3713;DHT22;1872;51.406;6.856;2023-09-19T08:27:18;17.50;99.90
3713;DHT22;1872;51.406;6.856;2023-09-19T08:29:46;17.60;99.90
3713;DHT22;1872;51.406;6.856;2023-09-19T08:32:12;17.70;99.90
3713;DHT22;1872;51.406;6.856;2023-09-19T08:34:38;17.80;99.90
3713;DHT22;1872;51.406;6.856;2023-09-19T08:37:04;17.80;99.90
3713;DHT22;1872;51.406;6.856;2023-09-19T08:39:30;18.00;99.90
3713;DHT22;1872;51.406;6.856;2023-09-19T08:41:59;18.10;99.90
3713;DHT22;1872;51.406;6.856;2023-09-19T08:44:26;18.20;99.90
3713;DHT22;1872;51.406;6.856;2023-09-19T08:47:06;18.30;99.90
3713;DHT22;1872;51.406;6.856;2023-09-19T08:52:41;18.40;99.90
3713;DHT22;1872;51.406;6.856;2023-09-19T08:55:07;18.50;99.90
3713;DHT22;1872;51.406;6.856;2023-09-19T08:57:37;18.60;99.90
3713;DHT22;1872;51.406;6.856;2023-09-19T09:00:07;18.70;99.90
3713;DHT22;1872;51.406;6.856;2023-09-19T09:02:38;18.70;99.90
3713;DHT22;1872;51.406;6.856;2023-09-19T09:05:09;18.70;99.90
3713;DHT22;1872;51.406;6.856;2023-09-19T09:07:45;18.80;99.90
3713;DHT22;1872;51.406;6.856;2023-09-19T09:10:13;18.80;99.90
3713;DHT22;1872;51.406;6.856;2023-09-19T09:12:38;18.90;99.90
3713;DHT22;1872;51.406;6.856;2023-09-19T09:15:07;18.90;99.90
3713;DHT22;1872;51.406;6.856;2023-09-19T09:17:34;19.00;99.90
3713;DHT22;1872;51.406;6.856;2023-09-19T09:20:00;19.10;99.90
3713;DHT22;1872;51.406;6.856;2023-09-19T09:22:25;19.00;99.90
3713;DHT22;1872;51.406;6.856;2023-09-19T09:24:58;19.10;99.90
3713;DHT22;1872;51.406;6.856;2023-09-19T09:27:27;19.00;99.90
3713;DHT22;1872;51.406;6.856;2023-09-19T09:29:53;19.00;99.90
3713;DHT22;1872;51.406;6.856;2023-09-19T09:34:52;19.00;99.90
3713;DHT22;1872;51.406;6.856;2023-09-19T09:37:19;18.90;99.90
3713;DHT22;1872;51.406;6.856;2023-09-19T09:39:53;18.90;99.90
3713;DHT22;1872;51.406;6.856;2023-09-19T09:42:36;18.90;99.90
3713;DHT22;1872;51.406;6.856;2023-09-19T09:45:18;18.80;99.90
3713;DHT22;1872;51.406;6.856;2023-09-19T09:47:48;18.80;99.90
3713;DHT22;1872;51.406;6.856;2023-09-19T09:50:34;18.80;99.90
3713;DHT22;1872;51.406;6.856;2023-09-19T09:53:21;18.80;99.90
3713;DHT22;1872;51.406;6.856;2023-09-19T09:56:08;18.70;99.90
3713;DHT22;1872;51.406;6.856;2023-09-19T10:01:13;18.60;99.90
3713;DHT22;1872;51.406;6.856;2023-09-19T10:03:42;18.50;99.90
3713;DHT22;1872;51.406;6.856;2023-09-19T10:06:15;18.50;99.90
3713;DHT22;1872;51.406;6.856;2023-09-19T10:09:03;18.60;99.90
3713;DHT22;1872;51.406;6.856;2023-09-19T10:11:44;18.60;99.90
3713;DHT22;1872;51.406;6.856;2023-09-19T10:14:15;18.70;99.90
3713;DHT22;1872;51.406;6.856;2023-09-19T10:16:46;18.80;99.90
3713;DHT22;1872;51.406;6.856;2023-09-19T10:19:21;18.90;99.90
3713;DHT22;1872;51.406;6.856;2023-09-19T10:21:50;18.80;99.90
3713;DHT22;1872;51.406;6.856;2023-09-19T10:24:17;18.90;99.90
3713;DHT22;1872;51.406;6.856;2023-09-19T10:26:45;18.90;99.90
3713;DHT22;1872;51.406;6.856;2023-09-19T10:29:13;18.90;99.90
3713;DHT22;1872;51.406;6.856;2023-09-19T10:31:42;19.00;99.90
3713;DHT22;1872;51.406;6.856;2023-09-19T10:34:14;19.00;99.90
3713;DHT22;1872;51.406;6.856;2023-09-19T10:36:44;19.00;99.90
3713;DHT22;1872;51.406;6.856;2023-09-19T10:39:12;19.10;99.90
3713;DHT22;1872;51.406;6.856;2023-09-19T10:41:39;19.00;99.90
3713;DHT22;1872;51.406;6.856;2023-09-19T10:44:05;19.00;99.90
3713;DHT22;1872;51.406;6.856;2023-09-19T10:46:34;19.00;99.90
3713;DHT22;1872;51.406;6.856;2023-09-19T10:49:01;19.00;99.90
3713;DHT22;1872;51.406;6.856;2023-09-19T10:51:30;19.00;99.90
3713;DHT22;1872;51.406;6.856;2023-09-19T10:54:12;19.00;99.90
3713;DHT22;1872;51.406;6.856;2023-09-19T10:56:49;19.10;99.90
3713;DHT22;1872;51.406;6.856;2023-09-19T10:59:18;19.10;99.90
3713;DHT22;1872;51.406;6.856;2023-09-19T11:01:44;19.10;99.90
3713;DHT22;1872;51.406;6.856;2023-09-19T11:04:32;19.10;99.90
3713;DHT22;1872;51.406;6.856;2023-09-19T11:07:12;19.10;99.90
3713;DHT22;1872;51.406;6.856;2023-09-19T11:15:07;19.20;99.90
3713;DHT22;1872;51.406;6.856;2023-09-19T11:17:43;19.20;99.90
3713;DHT22;1872;51.406;6.856;2023-09-19T11:30:47;19.30;99.90
3713;DHT22;1872;51.406;6.856;2023-09-19T11:33:19;19.30;99.90
3713;DHT22;1872;51.406;6.856;2023-09-19T11:36:06;19.40;99.90
3713;DHT22;1872;51.406;6.856;2023-09-19T11:43:46;19.60;99.90
3713;DHT22;1872;51.406;6.856;2023-09-19T11:46:12;19.60;99.90
3713;DHT22;1872;51.406;6.856;2023-09-19T11:48:42;19.60;99.90
3713;DHT22;1872;51.406;6.856;2023-09-19T11:51:36;19.50;99.90
3713;DHT22;1872;51.406;6.856;2023-09-19T11:54:10;19.50;99.90
3713;DHT22;1872;51.406;6.856;2023-09-19T11:56:44;19.50;99.90
3713;DHT22;1872;51.406;6.856;2023-09-19T11:59:11;19.50;99.90
3713;DHT22;1872;51.406;6.856;2023-09-19T12:01:43;19.50;99.90
3713;DHT22;1872;51.406;6.856;2023-09-19T12:04:17;19.50;99.90
3713;DHT22;1872;51.406;6.856;2023-09-19T12:06:43;19.50;99.90
3713;DHT22;1872;51.406;6.856;2023-09-19T12:09:22;19.60;99.90
3713;DHT22;1872;51.406;6.856;2023-09-19T12:11:48;19.60;99.90
3713;DHT22;1872;51.406;6.856;2023-09-19T12:14:25;19.70;99.90
3713;DHT22;1872;51.406;6.856;2023-09-19T12:16:55;19.70;99.90
3713;DHT22;1872;51.406;6.856;2023-09-19T12:19:22;19.60;99.90
3713;DHT22;1872;51.406;6.856;2023-09-19T12:22:02;19.60;99.90
3713;DHT22;1872;51.406;6.856;2023-09-19T12:24:32;19.60;99.90
3713;DHT22;1872;51.406;6.856;2023-09-19T12:27:03;19.50;99.90
3713;DHT22;1872;51.406;6.856;2023-09-19T12:29:31;19.50;99.90
3713;DHT22;1872;51.406;6.856;2023-09-19T12:31:59;19.60;99.90
3713;DHT22;1872;51.406;6.856;2023-09-19T12:34:29;19.70;99.90
3713;DHT22;1872;51.406;6.856;2023-09-19T12:39:43;19.70;99.90
3713;DHT22;1872;51.406;6.856;2023-09-19T12:42:11;19.70;99.90
3713;DHT22;1872;51.406;6.856;2023-09-19T12:44:44;19.70;99.90
3713;DHT22;1872;51.406;6.856;2023-09-19T12:47:19;19.70;99.90
3713;DHT22;1872;51.406;6.856;2023-09-19T12:50:06;19.80;99.90
3713;DHT22;1872;51.406;6.856;2023-09-19T12:52:37;19.80;99.90
3713;DHT22;1872;51.406;6.856;2023-09-19T12:55:03;19.80;99.90
3713;DHT22;1872;51.406;6.856;2023-09-19T12:57:30;19.80;99.90
3713;DHT22;1872;51.406;6.856;2023-09-19T13:00:04;19.80;99.90
3713;DHT22;1872;51.406;6.856;2023-09-19T13:02:36;19.80;99.90
3713;DHT22;1872;51.406;6.856;2023-09-19T13:05:03;19.90;99.90
3713;DHT22;1872;51.406;6.856;2023-09-19T13:07:45;19.80;99.90
3713;DHT22;1872;51.406;6.856;2023-09-19T13:10:12;19.90;99.90
3713;DHT22;1872;51.406;6.856;2023-09-19T13:12:41;20.00;99.90
3713;DHT22;1872;51.406;6.856;2023-09-19T13:15:11;20.00;99.90
3713;DHT22;1872;51.406;6.856;2023-09-19T13:17:46;19.90;99.90
3713;DHT22;1872;51.406;6.856;2023-09-19T13:20:25;19.90;99.90
3713;DHT22;1872;51.406;6.856;2023-09-19T13:22:55;19.90;99.90
3713;DHT22;1872;51.406;6.856;2023-09-19T13:25:24;19.90;99.90
3713;DHT22;1872;51.406;6.856;2023-09-19T13:30:18;19.90;99.90
3713;DHT22;1872;51.406;6.856;2023-09-19T13:32:45;19.90;99.90
3713;DHT22;1872;51.406;6.856;2023-09-19T13:35:14;19.90;99.90
3713;DHT22;1872;51.406;6.856;2023-09-19T13:37:44;19.90;99.90
3713;DHT22;1872;51.406;6.856;2023-09-19T13:40:15;19.90;99.90
3713;DHT22;1872;51.406;6.856;2023-09-19T13:42:41;20.00;99.90
3713;DHT22;1872;51.406;6.856;2023-09-19T13:45:08;20.00;99.90
3713;DHT22;1872;51.406;6.856;2023-09-19T13:47:38;20.10;99.90
3713;DHT22;1872;51.406;6.856;2023-09-19T13:50:05;20.10;99.90
3713;DHT22;1872;51.406;6.856;2023-09-19T13:52:52;20.10;99.90
3713;DHT22;1872;51.406;6.856;2023-09-19T13:55:19;20.10;99.90
3713;DHT22;1872;51.406;6.856;2023-09-19T13:57:47;20.10;99.90
3713;DHT22;1872;51.406;6.856;2023-09-19T14:00:16;20.10;99.90
3713;DHT22;1872;51.406;6.856;2023-09-19T14:02:41;20.00;99.90
3713;DHT22;1872;51.406;6.856;2023-09-19T14:05:10;20.00;99.90
3713;DHT22;1872;51.406;6.856;2023-09-19T14:07:41;20.00;99.90
3713;DHT22;1872;51.406;6.856;2023-09-19T14:10:07;20.00;99.90
3713;DHT22;1872;51.406;6.856;2023-09-19T14:12:36;20.00;99.90
3713;DHT22;1872;51.406;6.856;2023-09-19T14:15:03;20.00;99.90
3713;DHT22;1872;51.406;6.856;2023-09-19T14:17:29;20.00;99.90
3713;DHT22;1872;51.406;6.856;2023-09-19T14:19:55;20.00;99.90
3713;DHT22;1872;51.406;6.856;2023-09-19T14:22:21;20.00;99.90
3713;DHT22;1872;51.406;6.856;2023-09-19T14:24:48;20.00;99.90
3713;DHT22;1872;51.406;6.856;2023-09-19T14:27:13;20.00;99.90
3713;DHT22;1872;51.406;6.856;2023-09-19T14:29:40;19.90;99.90
3713;DHT22;1872;51.406;6.856;2023-09-19T14:32:08;19.90;99.90
3713;DHT22;1872;51.406;6.856;2023-09-19T14:34:33;19.90;99.90
3713;DHT22;1872;51.406;6.856;2023-09-19T14:36:59;19.90;99.90
3713;DHT22;1872;51.406;6.856;2023-09-19T14:39:25;19.90;99.90
3713;DHT22;1872;51.406;6.856;2023-09-19T14:41:51;19.90;99.90
3713;DHT22;1872;51.406;6.856;2023-09-19T14:44:17;19.90;99.90
3713;DHT22;1872;51.406;6.856;2023-09-19T14:46:42;19.90;99.90
3713;DHT22;1872;51.406;6.856;2023-09-19T14:49:11;19.90;99.90
3713;DHT22;1872;51.406;6.856;2023-09-19T14:51:40;19.90;99.90
3713;DHT22;1872;51.406;6.856;2023-09-19T14:54:07;19.90;99.90
3713;DHT22;1872;51.406;6.856;2023-09-19T14:56:33;19.90;99.90
3713;DHT22;1872;51.406;6.856;2023-09-19T14:58:59;19.80;99.90
3713;DHT22;1872;51.406;6.856;2023-09-19T15:01:25;19.80;99.90
3713;DHT22;1872;51.406;6.856;2023-09-19T15:03:51;19.80;99.90
3713;DHT22;1872;51.406;6.856;2023-09-19T15:06:17;19.70;99.90
3713;DHT22;1872;51.406;6.856;2023-09-19T15:08:45;19.70;99.90
3713;DHT22;1872;51.406;6.856;2023-09-19T15:11:13;19.70;99.90
3713;DHT22;1872;51.406;6.856;2023-09-19T15:13:42;19.70;99.90
3713;DHT22;1872;51.406;6.856;2023-09-19T15:16:08;19.70;99.90
3713;DHT22;1872;51.406;6.856;2023-09-19T15:18:35;19.70;99.90
3713;DHT22;1872;51.406;6.856;2023-09-19T15:21:12;19.60;99.90
3713;DHT22;1872;51.406;6.856;2023-09-19T15:23:39;19.60;99.90
3713;DHT22;1872;51.406;6.856;2023-09-19T15:26:07;19.60;99.90
3713;DHT22;1872;51.406;6.856;2023-09-19T15:28:39;19.60;99.90
3713;DHT22;1872;51.406;6.856;2023-09-19T15:31:07;19.60;99.90
3713;DHT22;1872;51.406;6.856;2023-09-19T15:33:34;19.60;99.90
3713;DHT22;1872;51.406;6.856;2023-09-19T15:36:10;19.60;99.90
3713;DHT22;1872;51.406;6.856;2023-09-19T15:38:58;19.60;99.90
3713;DHT22;1872;51.406;6.856;2023-09-19T15:41:35;19.60;99.90
3713;DHT22;1872;51.406;6.856;2023-09-19T15:44:03;19.60;99.90
3713;DHT22;1872;51.406;6.856;2023-09-19T15:46:33;19.70;99.90
3713;DHT22;1872;51.406;6.856;2023-09-19T15:49:00;19.70;99.90
3713;DHT22;1872;51.406;6.856;2023-09-19T15:51:27;19.70;99.90
3713;DHT22;1872;51.406;6.856;2023-09-19T15:53:53;19.70;99.90
3713;DHT22;1872;51.406;6.856;2023-09-19T15:56:21;19.70;99.90
3713;DHT22;1872;51.406;6.856;2023-09-19T15:58:49;19.70;99.90
3713;DHT22;1872;51.406;6.856;2023-09-19T16:01:16;19.60;99.90
3713;DHT22;1872;51.406;6.856;2023-09-19T16:03:44;19.60;99.90
3713;DHT22;1872;51.406;6.856;2023-09-19T16:06:12;19.50;99.90
3713;DHT22;1872;51.406;6.856;2023-09-19T16:08:42;19.50;99.90
3713;DHT22;1872;51.406;6.856;2023-09-19T16:11:08;19.50;99.90
3713;DHT22;1872;51.406;6.856;2023-09-19T16:13:34;19.40;99.90
3713;DHT22;1872;51.406;6.856;2023-09-19T16:16:00;19.30;99.90
3713;DHT22;1872;51.406;6.856;2023-09-19T16:18:26;19.30;99.90
3713;DHT22;1872;51.406;6.856;2023-09-19T16:20:52;19.20;99.90
3713;DHT22;1872;51.406;6.856;2023-09-19T16:23:17;19.20;99.90
3713;DHT22;1872;51.406;6.856;2023-09-19T16:25:43;19.20;99.90
3713;DHT22;1872;51.406;6.856;2023-09-19T16:28:11;19.20;99.90
3713;DHT22;1872;51.406;6.856;2023-09-19T16:30:37;19.10;99.90
3713;DHT22;1872;51.406;6.856;2023-09-19T16:33:04;19.20;99.90
3713;DHT22;1872;51.406;6.856;2023-09-19T16:35:31;19.20;99.90
3713;DHT22;1872;51.406;6.856;2023-09-19T16:38:01;19.20;99.90
3713;DHT22;1872;51.406;6.856;2023-09-19T16:40:27;19.20;99.90
3713;DHT22;1872;51.406;6.856;2023-09-19T16:42:54;19.20;99.90
3713;DHT22;1872;51.406;6.856;2023-09-19T16:45:19;19.20;99.90
3713;DHT22;1872;51.406;6.856;2023-09-19T16:47:45;19.10;99.90
3713;DHT22;1872;51.406;6.856;2023-09-19T16:50:11;19.10;99.90
3713;DHT22;1872;51.406;6.856;2023-09-19T16:52:37;19.20;99.90
3713;DHT22;1872;51.406;6.856;2023-09-19T16:55:04;19.10;99.90
3713;DHT22;1872;51.406;6.856;2023-09-19T16:57:31;19.10;99.90
3713;DHT22;1872;51.406;6.856;2023-09-19T16:59:57;19.20;99.90